Snow/Ice From: 16-12-2017 16:00 Until: 17-12-2017 16:00 warning for: Snow/Ice Level: Yellow info button

Although rather usual in this region, locally or potentially dangerous phenomena are expected. (such as local winds, summer thunderstorms, rising streams or high waves) Be aware and pay attention to the latest weather updates, especially if you carry out activities exposed to weather or close to a stream or shoreline. 


Meteo18 Weather Cam more information Meteo18 Weather Cam


Thunder radar more information blitzortung!


warning for Snow/Ice more information rain snow radar


Visit our other weather sites:

Template documentation
and downloads

And another site



Weather Underground History page Text

Daily Summary for July 2, 2017 Units:  English    Metric   Both
« Previous Day
Next Day »
Daily Weekly Monthly Yearly Custom
  High: Low: Average:
Temperature: 63 °F 56.1 °F 59.4 °F
Dew Point: 59.7 °F 54 °F 56.8 °F
Humidity: 96 % 83 % 92 %
Wind Speed: 10 mph 0 mph 2.7 mph
Wind Gust: 12 mph - -
Wind:- - WSW
Pressure: 30.3 in 30.2 in -
Precipitation: 0.01 in    
Historical Graphs
 
 
Tabular Data for July 2, 2017
Time Temperature Dew Point Pressure Wind Wind Speed Wind Gust Humidity Rainfall Rate (Hourly)
00:02 58.6 °F 56.8 °F 30.2 in Calm   2 mph 94 % 0 in
00:07 58.6 °F 57.2 °F 30.2 in SSE 1 mph 2 mph 95 % 0 in
00:12 58.6 °F 57.2 °F 30.2 in Calm   2 mph 95 % 0 in
00:17 58.6 °F 57.2 °F 30.2 in WSW 1 mph 2 mph 95 % 0 in
00:22 58.5 °F 57 °F 30.2 in Calm   2 mph 95 % 0 in
00:27 58.6 °F 57.6 °F 30.2 in West 1 mph 2 mph 96 % 0 in
00:32 58.6 °F 57.2 °F 30.2 in WNW 2 mph 2 mph 95 % 0 in
00:37 58.5 °F 57 °F 30.2 in WNW 1 mph 3 mph 95 % 0 in
00:42 58.3 °F 56.8 °F 30.2 in Calm   3 mph 95 % 0 in
00:52 58.3 °F 57.2 °F 30.2 in Calm   3 mph 96 % 0 in
00:57 58.5 °F 57.4 °F 30.2 in Calm   1 mph 96 % 0 in
01:02 58.5 °F 57.4 °F 30.2 in Calm     96 % 0 in
01:07 58.5 °F 57.4 °F 30.2 in Calm     96 % 0 in
01:12 58.3 °F 56.8 °F 30.2 in WNW 2 mph   95 % 0 in
01:22 58.6 °F 57.6 °F 30.2 in SW 1 mph 2 mph 96 % 0 in
01:32 58.6 °F 57.2 °F 30.2 in West 1 mph 4 mph 95 % 0 in
01:37 58.8 °F 57.4 °F 30.2 in Calm   4 mph 95 % 0 in
01:42 58.8 °F 57.4 °F 30.2 in Calm   4 mph 95 % 0 in
01:47 58.8 °F 57.4 °F 30.2 in Calm   4 mph 95 % 0 in
01:52 58.8 °F 57.4 °F 30.2 in WNW 1 mph 2 mph 95 % 0 in
01:57 58.8 °F 57.4 °F 30.2 in Calm   3 mph 95 % 0 in
02:02 59 °F 57.6 °F 30.2 in West 1 mph 3 mph 95 % 0 in
02:07 59.2 °F 57.4 °F 30.2 in WNW 3 mph 3 mph 94 % 0 in
02:12 59.2 °F 57.4 °F 30.2 in NW 2 mph 8 mph 94 % 0 in
02:17 59.2 °F 57.4 °F 30.2 in NNE 2 mph 8 mph 94 % 0 in
02:22 59.4 °F 57.4 °F 30.2 in Calm   8 mph 93 % 0 in
02:32 59.4 °F 57.4 °F 30.2 in Calm   7 mph 93 % 0 in
02:37 59.2 °F 57.2 °F 30.2 in WNW 2 mph 5 mph 93 % 0 in
02:42 59.2 °F 57.2 °F 30.2 in WSW 2 mph 6 mph 93 % 0 in
02:47 59.2 °F 57.2 °F 30.2 in West 2 mph 6 mph 93 % 0 in
02:52 59.2 °F 57.2 °F 30.2 in WSW 2 mph 6 mph 93 % 0 in
02:57 59 °F 57 °F 30.2 in WNW 5 mph 5 mph 93 % 0 in
03:02 58.8 °F 56.8 °F 30.2 in WNW 2 mph 8 mph 93 % 0 in
03:07 58.8 °F 56.8 °F 30.2 in WNW 1 mph 8 mph 93 % 0 in
03:12 58.6 °F 56.8 °F 30.2 in Calm   8 mph 94 % 0 in
03:17 58.6 °F 56.8 °F 30.2 in Calm   4 mph 94 % 0 in
03:22 58.6 °F 56.8 °F 30.2 in WNW 2 mph 3 mph 94 % 0 in
03:27 58.5 °F 56.7 °F 30.2 in West 1 mph 2 mph 94 % 0 in
03:32 58.5 °F 56.7 °F 30.2 in West 1 mph 4 mph 94 % 0 in
03:37 58.5 °F 56.7 °F 30.2 in Calm   4 mph 94 % 0 in
03:42 58.5 °F 56.7 °F 30.2 in Calm   3 mph 94 % 0 in
03:47 58.5 °F 56.7 °F 30.2 in WNW 3 mph 3 mph 94 % 0 in
03:52 58.5 °F 57 °F 30.2 in WNW 2 mph 4 mph 95 % 0 in
03:57 58.5 °F 56.7 °F 30.2 in WNW 2 mph 4 mph 94 % 0 in
04:02 58.5 °F 56.7 °F 30.2 in Calm   4 mph 94 % 0 in
04:07 58.5 °F 56.7 °F 30.2 in NW 1 mph 4 mph 94 % 0 in
04:17 58.5 °F 56.7 °F 30.2 in West 1 mph 5 mph 94 % 0 in
04:22 58.5 °F 56.7 °F 30.2 in Calm   5 mph 94 % 0 in
04:32 58.3 °F 56.5 °F 30.2 in WNW 1 mph 6 mph 94 % 0 in
04:37 58.3 °F 56.5 °F 30.2 in North 1 mph 6 mph 94 % 0 in
04:42 58.3 °F 56.5 °F 30.2 in Calm   6 mph 94 % 0 in
04:47 58.3 °F 56.5 °F 30.2 in Calm   4 mph 94 % 0 in
04:52 58.3 °F 56.5 °F 30.2 in Calm   4 mph 94 % 0 in
04:57 58.1 °F 56.3 °F 30.2 in SW 2 mph 2 mph 94 % 0 in
05:02 58.1 °F 56.3 °F 30.2 in West 2 mph 4 mph 94 % 0 in
05:07 57.9 °F 56.1 °F 30.2 in WSW 4 mph 7 mph 94 % 0 in
05:12 58.1 °F 56.3 °F 30.2 in West 3 mph 8 mph 94 % 0 in
05:17 58.1 °F 56.3 °F 30.2 in WNW 3 mph 8 mph 94 % 0 in
05:22 57.9 °F 56.1 °F 30.2 in WNW 2 mph 8 mph 94 % 0 in
05:27 57.9 °F 56.1 °F 30.2 in West 3 mph 6 mph 94 % 0 in
05:32 57.7 °F 55.9 °F 30.2 in WNW 3 mph 5 mph 94 % 0 in
05:37 57.6 °F 55.8 °F 30.2 in WNW 2 mph 5 mph 94 % 0 in
05:42 57.4 °F 55.6 °F 30.2 in NW 2 mph 7 mph 94 % 0 in
05:47 57.2 °F 55.4 °F 30.2 in WNW 6 mph 7 mph 94 % 0 in
05:52 57 °F 55.2 °F 30.2 in West 2 mph 9 mph 94 % 0 in
05:57 56.8 °F 55.2 °F 30.3 in WNW 5 mph 9 mph 94 % 0 in
06:02 56.8 °F 55.2 °F 30.3 in WNW 1 mph 9 mph 94 % 0 in
06:07 56.7 °F 55 °F 30.3 in WNW 1 mph 8 mph 94 % 0 in
06:12 56.7 °F 55 °F 30.3 in West 1 mph 8 mph 94 % 0 in
06:17 56.5 °F 54.9 °F 30.3 in WSW 3 mph 5 mph 94 % 0 in
06:22 56.1 °F 54.5 °F 30.3 in WNW 4 mph 6 mph 94 % 0 in
06:32 56.1 °F 54.5 °F 30.3 in WNW 1 mph 6 mph 94 % 0 in
06:37 56.1 °F 54.5 °F 30.3 in Calm   5 mph 94 % 0 in
06:42 56.1 °F 54.5 °F 30.3 in Calm   5 mph 94 % 0 in
06:47 56.1 °F 54.5 °F 30.3 in WSW 1 mph 1 mph 94 % 0 in
06:52 56.1 °F 54.1 °F 30.3 in Calm   3 mph 93 % 0 in
07:02 56.5 °F 54.5 °F 30.3 in Calm   3 mph 93 % 0 in
07:12 56.8 °F 54.5 °F 30.3 in Calm   1 mph 92 % 0 in
07:17 57 °F 54.7 °F 30.3 in Calm   1 mph 92 % 0 in
07:22 57 °F 54.5 °F 30.3 in Calm   1 mph 91 % 0 in
07:27 57 °F 54.5 °F 30.3 in Calm   1 mph 91 % 0 in
07:32 57.4 °F 55 °F 30.3 in Calm     92 % 0 in
07:37 57.4 °F 54.5 °F 30.3 in Calm     90 % 0 in
07:42 57.4 °F 54.5 °F 30.3 in Calm   3 mph 90 % 0 in
07:47 57.7 °F 54.5 °F 30.3 in Calm   3 mph 89 % 0 in
07:52 57.7 °F 54.5 °F 30.3 in Calm   3 mph 89 % 0 in
07:57 57.9 °F 54.3 °F 30.3 in Calm   2 mph 88 % 0 in
08:02 58.5 °F 55.2 °F 30.3 in Calm   2 mph 89 % 0 in
08:07 59 °F 55.2 °F 30.3 in Calm   2 mph 87 % 0 in
08:12 59.2 °F 55 °F 30.3 in Calm   3 mph 86 % 0 in
08:17 59.7 °F 55.8 °F 30.3 in SSW 2 mph 3 mph 87 % 0 in
08:22 59.7 °F 55.6 °F 30.3 in WSW 5 mph 5 mph 86 % 0 in
08:27 59.5 °F 55.4 °F 30.3 in West 4 mph 6 mph 86 % 0 in
08:32 59.2 °F 54 °F 30.3 in West 5 mph 6 mph 83 % 0 in
08:37 59 °F 54.5 °F 30.3 in WSW 3 mph 7 mph 85 % 0 in
08:42 58.6 °F 54.1 °F 30.3 in WSW 6 mph 7 mph 85 % 0 in
08:47 58.6 °F 54.5 °F 30.3 in West 3 mph 7 mph 86 % 0 in
08:52 58.5 °F 54.3 °F 30.3 in SSW 4 mph 7 mph 86 % 0 in
08:57 58.3 °F 54.1 °F 30.3 in WSW 7 mph 8 mph 86 % 0 in
09:02 58.1 °F 54 °F 30.3 in SW 4 mph 8 mph 86 % 0 in
09:12 58.3 °F 54.7 °F 30.3 in SW 4 mph 7 mph 88 % 0 in
09:17 57.9 °F 54.3 °F 30.3 in WSW 5 mph 7 mph 88 % 0 in
09:22 57.7 °F 54.5 °F 30.3 in SW 5 mph 8 mph 89 % 0 in
09:27 57.7 °F 54.5 °F 30.3 in WSW 6 mph 8 mph 89 % 0 in
09:32 57.6 °F 54 °F 30.3 in SSE 2 mph 9 mph 88 % 0 in
09:42 57.9 °F 54.3 °F 30.3 in SW 5 mph 9 mph 88 % 0 in
09:47 57.9 °F 54.1 °F 30.3 in SW 2 mph 8 mph 87 % 0 in
09:52 58.3 °F 54.7 °F 30.3 in WSW 5 mph 8 mph 88 % 0 in
09:57 58.3 °F 54.5 °F 30.3 in WNW 3 mph 8 mph 87 % 0 in
10:02 58.5 °F 54.7 °F 30.3 in WSW 3 mph 10 mph 87 % 0 in
10:12 58.5 °F 54.7 °F 30.3 in WSW 8 mph 10 mph 87 % 0 in
10:17 58.5 °F 54.7 °F 30.3 in WSW 4 mph 9 mph 87 % 0 in
10:22 58.3 °F 54.5 °F 30.3 in SW 7 mph 8 mph 87 % 0 in
10:27 58.1 °F 54.3 °F 30.3 in WSW 4 mph 8 mph 87 % 0 in
10:32 57.9 °F 54.1 °F 30.3 in WSW 7 mph 10 mph 87 % 0 in
10:37 58.1 °F 54.5 °F 30.3 in SW 1 mph 10 mph 88 % 0 in
10:42 58.3 °F 54.5 °F 30.3 in SSW 5 mph 10 mph 87 % 0 in
10:47 58.3 °F 54.5 °F 30.3 in West 2 mph 8 mph 87 % 0 in
10:52 58.3 °F 54.7 °F 30.3 in West 3 mph 8 mph 88 % 0 in
10:57 58.3 °F 54.7 °F 30.3 in WSW 3 mph 8 mph 88 % 0 in
11:02 58.5 °F 54.9 °F 30.3 in West 2 mph 8 mph 88 % 0 in
11:12 57.9 °F 54.1 °F 30.3 in West 3 mph 10 mph 87 % 0.01 in
11:17 57.9 °F 54.3 °F 30.3 in West 4 mph 10 mph 88 % 0.01 in
11:22 57.7 °F 54.1 °F 30.3 in West 3 mph 10 mph 88 % 0.01 in
11:32 57.7 °F 54.5 °F 30.3 in WSW 4 mph 7 mph 89 % 0.01 in
11:37 57.7 °F 54.5 °F 30.3 in WSW 3 mph 7 mph 89 % 0.01 in
11:42 57.7 °F 54.9 °F 30.3 in WSW 3 mph 7 mph 90 % 0.01 in
11:47 57.6 °F 54.3 °F 30.3 in WNW 5 mph 9 mph 89 % 0.01 in
11:52 57.6 °F 54.3 °F 30.3 in WSW 2 mph 9 mph 89 % 0.01 in
11:57 57.7 °F 54.9 °F 30.3 in WSW 2 mph 9 mph 90 % 0.01 in
12:02 57.7 °F 54.9 °F 30.3 in SSW 2 mph 7 mph 90 % 0.01 in
12:07 57.9 °F 55 °F 30.3 in WSW 4 mph 7 mph 90 % 0.01 in
12:12 57.9 °F 55 °F 30.3 in WSW 1 mph 7 mph 90 % 0 in
12:17 58.3 °F 55.4 °F 30.3 in SW 5 mph 7 mph 90 % 0 in
12:22 58.1 °F 55.2 °F 30.3 in South 6 mph 9 mph 90 % 0 in
12:32 57.9 °F 55 °F 30.3 in SW 2 mph 9 mph 90 % 0 in
12:42 57.9 °F 55.2 °F 30.3 in SW 7 mph 10 mph 91 % 0 in
12:47 57.9 °F 55.6 °F 30.3 in SW 10 mph 10 mph 92 % 0 in
12:57 58.3 °F 55.9 °F 30.3 in SW 4 mph 10 mph 92 % 0 in
13:02 58.5 °F 56.1 °F 30.3 in West 8 mph 10 mph 92 % 0 in
13:07 58.6 °F 56.3 °F 30.3 in WSW 6 mph 8 mph 92 % 0 in
13:12 58.8 °F 56.5 °F 30.3 in SSW 1 mph 8 mph 92 % 0 in
13:17 58.6 °F 56.3 °F 30.3 in SSW 5 mph 10 mph 92 % 0 in
13:22 58.6 °F 56.3 °F 30.3 in WSW 3 mph 10 mph 92 % 0 in
13:27 58.8 °F 56.5 °F 30.3 in SW 8 mph 10 mph 92 % 0 in
13:32 58.8 °F 56.5 °F 30.3 in SW 5 mph 10 mph 92 % 0 in
13:37 58.8 °F 56.5 °F 30.3 in West 3 mph 9 mph 92 % 0 in
13:42 59 °F 56.7 °F 30.3 in West 5 mph 8 mph 92 % 0 in
13:47 59.2 °F 56.8 °F 30.3 in SW 7 mph 8 mph 92 % 0 in
13:52 59.5 °F 57.2 °F 30.3 in SW 2 mph 8 mph 92 % 0 in
13:57 59.4 °F 56.7 °F 30.3 in WSW 5 mph 10 mph 91 % 0 in
14:02 59.4 °F 57 °F 30.3 in SW 4 mph 10 mph 92 % 0 in
14:07 59.5 °F 57.2 °F 30.3 in SW 5 mph 10 mph 92 % 0 in
14:12 59.7 °F 57.4 °F 30.3 in SW 5 mph 10 mph 92 % 0 in
14:17 59.7 °F 57 °F 30.3 in West 10 mph 10 mph 91 % 0 in
14:22 59.5 °F 56.8 °F 30.3 in SW 5 mph 10 mph 91 % 0 in
14:32 59.5 °F 56.8 °F 30.3 in West 6 mph 12 mph 91 % 0 in
14:37 59.5 °F 56.8 °F 30.3 in WNW 6 mph 12 mph 91 % 0 in
14:42 59.4 °F 56.7 °F 30.3 in WSW 7 mph 11 mph 91 % 0 in
14:47 59.4 °F 57 °F 30.3 in WNW 4 mph 11 mph 92 % 0 in
14:52 59.4 °F 56.7 °F 30.3 in WSW 4 mph 11 mph 91 % 0 in
14:57 59.4 °F 57 °F 30.3 in WSW 5 mph 11 mph 92 % 0 in
15:02 59.4 °F 57 °F 30.3 in West 3 mph 11 mph 92 % 0 in
15:12 59.5 °F 57.6 °F 30.3 in West 5 mph 11 mph 93 % 0 in
15:17 59.7 °F 57.7 °F 30.3 in West 5 mph 11 mph 93 % 0 in
15:22 59.7 °F 57.4 °F 30.3 in WSW 4 mph 10 mph 92 % 0 in
15:27 60.1 °F 58.1 °F 30.3 in WSW 4 mph 10 mph 93 % 0 in
15:32 60.1 °F 57.7 °F 30.3 in West 4 mph 10 mph 92 % 0 in
15:37 60.1 °F 57.4 °F 30.3 in West 3 mph 10 mph 91 % 0 in
15:42 60.3 °F 57.9 °F 30.3 in WSW 5 mph 9 mph 92 % 0 in
15:47 60.1 °F 57.4 °F 30.3 in West 3 mph 9 mph 91 % 0 in
15:52 60.1 °F 57.4 °F 30.3 in SSW 5 mph 9 mph 91 % 0 in
15:57 59.7 °F 57 °F 30.3 in WSW 6 mph 10 mph 91 % 0 in
16:02 59.9 °F 57.6 °F 30.3 in SW 7 mph 10 mph 92 % 0 in
16:07 60.1 °F 57.4 °F 30.3 in West 3 mph 11 mph 91 % 0 in
16:12 59.7 °F 57 °F 30.3 in West 3 mph 11 mph 91 % 0 in
16:17 59.7 °F 57 °F 30.3 in West 5 mph 11 mph 91 % 0 in
16:22 59.9 °F 57.2 °F 30.3 in West 4 mph 10 mph 91 % 0 in
16:27 60.1 °F 57.4 °F 30.3 in West 3 mph 10 mph 91 % 0 in
16:32 60.3 °F 57.6 °F 30.3 in West 9 mph 10 mph 91 % 0 in
16:37 60.3 °F 57.6 °F 30.3 in WSW 7 mph 9 mph 91 % 0 in
16:42 60.3 °F 57.6 °F 30.3 in West 5 mph 9 mph 91 % 0 in
16:47 60.3 °F 57.6 °F 30.3 in WSW 4 mph 9 mph 91 % 0 in
16:52 60.3 °F 57.6 °F 30.3 in West 7 mph 11 mph 91 % 0 in
16:57 60.3 °F 57.6 °F 30.3 in West 4 mph 11 mph 91 % 0 in
17:02 60.1 °F 57.7 °F 30.3 in WNW 4 mph 11 mph 92 % 0 in
17:07 60.1 °F 57.7 °F 30.3 in West 5 mph 9 mph 92 % 0 in
17:12 60.1 °F 57.7 °F 30.3 in WSW 3 mph 8 mph 92 % 0 in
17:17 60.1 °F 57.7 °F 30.3 in West 5 mph 8 mph 92 % 0 in
17:22 60.1 °F 58.1 °F 30.3 in WSW 3 mph 7 mph 93 % 0 in
17:27 60.3 °F 58.3 °F 30.3 in WSW 7 mph 7 mph 93 % 0 in
17:32 60.1 °F 57.7 °F 30.3 in West 6 mph 8 mph 92 % 0 in
17:37 60.1 °F 57.7 °F 30.3 in West 7 mph 9 mph 92 % 0 in
17:42 60.3 °F 58.3 °F 30.3 in WSW 4 mph 9 mph 93 % 0 in
17:47 60.3 °F 58.3 °F 30.3 in WNW 2 mph 9 mph 93 % 0 in
17:52 60.4 °F 58.1 °F 30.3 in West 3 mph 9 mph 92 % 0 in
17:57 60.6 °F 58.3 °F 30.3 in West 4 mph 8 mph 92 % 0 in
18:02 60.8 °F 58.1 °F 30.3 in West 2 mph 9 mph 91 % 0 in
18:07 61 °F 58.3 °F 30.3 in WNW 5 mph 9 mph 91 % 0 in
18:12 61 °F 58.3 °F 30.3 in West 6 mph 9 mph 91 % 0 in
18:17 61 °F 58.3 °F 30.3 in WSW 5 mph 9 mph 91 % 0 in
18:22 61.2 °F 58.5 °F 30.3 in WNW 3 mph 8 mph 91 % 0 in
18:27 61.3 °F 58.6 °F 30.3 in West 3 mph 8 mph 91 % 0 in
18:32 61.5 °F 58.8 °F 30.3 in West 5 mph 7 mph 91 % 0 in
18:42 61.5 °F 58.6 °F 30.3 in West 2 mph 8 mph 90 % 0 in
18:47 61.5 °F 58.8 °F 30.3 in West 3 mph 8 mph 91 % 0 in
18:52 61.5 °F 58.8 °F 30.3 in WSW 6 mph 9 mph 91 % 0 in
18:57 61.5 °F 58.6 °F 30.3 in West 4 mph 9 mph 90 % 0 in
19:02 61.5 °F 58.8 °F 30.3 in West 3 mph 9 mph 91 % 0 in
19:07 61.7 °F 59 °F 30.3 in WNW 2 mph 8 mph 91 % 0 in
19:12 61.9 °F 59 °F 30.3 in Calm   7 mph 90 % 0 in
19:17 62.1 °F 59.2 °F 30.3 in WSW 2 mph 7 mph 90 % 0 in
19:22 62.2 °F 59.2 °F 30.3 in WSW 2 mph 6 mph 90 % 0 in
19:27 62.1 °F 58.8 °F 30.3 in WSW 2 mph 7 mph 89 % 0 in
19:32 62.2 °F 59.2 °F 30.3 in WSW 4 mph 7 mph 90 % 0 in
19:37 62.2 °F 59.2 °F 30.3 in West 2 mph 8 mph 90 % 0 in
19:42 62.2 °F 59 °F 30.3 in WSW 2 mph 8 mph 89 % 0 in
19:52 62.2 °F 59 °F 30.3 in SW 1 mph 8 mph 89 % 0 in
19:57 62.4 °F 59.4 °F 30.3 in SSW 2 mph 5 mph 90 % 0 in
20:02 62.6 °F 59.4 °F 30.3 in WSW 2 mph 5 mph 89 % 0 in
20:07 62.8 °F 59.5 °F 30.3 in West 2 mph 5 mph 89 % 0 in
20:12 62.8 °F 59.5 °F 30.3 in West 2 mph 5 mph 89 % 0 in
20:17 62.8 °F 59.5 °F 30.3 in SW 1 mph 5 mph 89 % 0 in
20:22 63 °F 59.7 °F 30.3 in SW 2 mph 5 mph 89 % 0 in
20:32 62.8 °F 59.5 °F 30.3 in West 3 mph 3 mph 89 % 0 in
20:37 62.8 °F 59.5 °F 30.3 in Calm   4 mph 89 % 0 in
20:42 62.8 °F 59.5 °F 30.3 in WNW 1 mph 4 mph 89 % 0 in
20:47 62.8 °F 59.5 °F 30.3 in SW 2 mph 4 mph 89 % 0 in
20:52 62.8 °F 59.7 °F 30.3 in SW 2 mph 4 mph 90 % 0 in
20:57 62.6 °F 59.5 °F 30.3 in WSW 1 mph 4 mph 90 % 0 in
21:02 62.6 °F 59.5 °F 30.3 in WSW 2 mph 4 mph 90 % 0 in
21:07 62.4 °F 59.4 °F 30.3 in SW 4 mph 5 mph 90 % 0 in
21:12 62.4 °F 59.4 °F 30.3 in SW 1 mph 5 mph 90 % 0 in
21:17 62.4 °F 59.4 °F 30.3 in West 1 mph 5 mph 90 % 0 in
21:22 62.4 °F 59.7 °F 30.3 in WSW 3 mph 5 mph 91 % 0 in
21:27 62.2 °F 59.5 °F 30.3 in SW 1 mph 4 mph 91 % 0 in
21:32 62.2 °F 59.5 °F 30.3 in SW 2 mph 4 mph 91 % 0 in
21:42 62.1 °F 59.7 °F 30.3 in SW 3 mph 4 mph 92 % 0 in
21:47 62.1 °F 59.7 °F 30.3 in SW 2 mph 4 mph 92 % 0 in
21:52 61.9 °F 59.5 °F 30.3 in SW 3 mph 4 mph 92 % 0 in
21:57 61.9 °F 59.5 °F 30.3 in SW 1 mph 4 mph 92 % 0 in
22:02 61.9 °F 59.5 °F 30.3 in SW 2 mph 3 mph 92 % 0 in
22:07 61.7 °F 59.4 °F 30.3 in SSW 2 mph 4 mph 92 % 0 in
22:12 61.5 °F 59.5 °F 30.3 in SSW 2 mph 4 mph 93 % 0 in
22:17 61.5 °F 59.5 °F 30.3 in SSW 1 mph 4 mph 93 % 0 in
22:27 61.3 °F 59.4 °F 30.3 in Calm   3 mph 93 % 0 in
22:32 61.2 °F 59.4 °F 30.3 in Calm   2 mph 94 % 0 in
22:37 61.2 °F 59.4 °F 30.3 in SSW 1 mph 2 mph 94 % 0 in
22:42 61.2 °F 59.4 °F 30.3 in SW 1 mph 2 mph 94 % 0 in
22:47 61 °F 59.2 °F 30.3 in SW 1 mph 2 mph 94 % 0 in
22:52 61 °F 59.2 °F 30.3 in SW 1 mph 2 mph 94 % 0 in
22:57 61 °F 59.2 °F 30.3 in SSW 1 mph 2 mph 94 % 0 in
23:02 61 °F 59.2 °F 30.3 in SW 1 mph 2 mph 94 % 0 in
23:12 60.6 °F 59.2 °F 30.3 in SSW 1 mph 3 mph 95 % 0 in
23:17 60.6 °F 59.2 °F 30.3 in SW 2 mph 3 mph 95 % 0 in
23:22 60.6 °F 59.2 °F 30.3 in SSW 1 mph 3 mph 95 % 0 in
23:27 60.6 °F 59.2 °F 30.3 in SSW 1 mph 3 mph 95 % 0 in
23:32 60.6 °F 59.2 °F 30.3 in SSW 2 mph 3 mph 95 % 0 in
23:37 60.6 °F 59.2 °F 30.3 in SW 2 mph 4 mph 95 % 0 in
23:42 60.6 °F 59.5 °F 30.3 in SSW 3 mph 4 mph 96 % 0 in
23:47 60.8 °F 59.7 °F 30.3 in SW 4 mph 4 mph 96 % 0 in
23:52 60.8 °F 59.7 °F 30.3 in SW 3 mph 6 mph 96 % 0 in
23:57 60.8 °F 59.7 °F 30.3 in SSW 1 mph 6 mph 96 % 0 in
Meteo18
Compliments of Weather Underground - 4 mb

Script developed by  Jim McMurry - jmcmurry@mwt.net Adapted for the template by  Wim van der Kuil - Leuven-Template.eu

You find our weather info also at:

European Weather Network

Weather Underground

Equipment we use:

Weather-station
Davis Vue

Weather-program
Meteohub

Weather-server
Raspberry PI 2 B+

Provider
1 and 1

Davis Vue

Meteohub

Raspberry PI 2 B+

1 and 1